sensor_id;sensor_type;location;lat;lon;timestamp;P1;durP1;ratioP1;P2;durP2;ratioP2
45039;SDS011;30778;53.574;7.770;2023-06-01T00:00:12;17.25;;;4.05;;
45039;SDS011;30778;53.574;7.770;2023-06-01T00:02:40;10.90;;;2.92;;
45039;SDS011;30778;53.574;7.770;2023-06-01T00:05:06;5.03;;;3.45;;
45039;SDS011;30778;53.574;7.770;2023-06-01T00:07:32;13.07;;;2.70;;
45039;SDS011;30778;53.574;7.770;2023-06-01T00:09:58;10.45;;;2.60;;
45039;SDS011;30778;53.574;7.770;2023-06-01T00:12:25;11.15;;;2.25;;
45039;SDS011;30778;53.574;7.770;2023-06-01T00:14:51;7.80;;;2.08;;
45039;SDS011;30778;53.574;7.770;2023-06-01T00:17:17;7.85;;;2.10;;
45039;SDS011;30778;53.574;7.770;2023-06-01T00:19:42;10.88;;;2.25;;
45039;SDS011;30778;53.574;7.770;2023-06-01T00:22:10;10.73;;;1.85;;
45039;SDS011;30778;53.574;7.770;2023-06-01T00:24:36;5.40;;;2.22;;
45039;SDS011;30778;53.574;7.770;2023-06-01T00:27:01;15.32;;;1.73;;
45039;SDS011;30778;53.574;7.770;2023-06-01T00:29:28;14.32;;;2.15;;
45039;SDS011;30778;53.574;7.770;2023-06-01T00:31:54;6.18;;;2.33;;
45039;SDS011;30778;53.574;7.770;2023-06-01T00:34:20;7.75;;;1.42;;
45039;SDS011;30778;53.574;7.770;2023-06-01T00:36:45;5.45;;;2.10;;
45039;SDS011;30778;53.574;7.770;2023-06-01T00:39:11;10.27;;;2.20;;
45039;SDS011;30778;53.574;7.770;2023-06-01T00:41:37;10.10;;;2.20;;
45039;SDS011;30778;53.574;7.770;2023-06-01T00:44:02;7.90;;;1.80;;
45039;SDS011;30778;53.574;7.770;2023-06-01T00:46:29;7.68;;;2.60;;
45039;SDS011;30778;53.574;7.770;2023-06-01T00:48:55;12.32;;;2.03;;
45039;SDS011;30778;53.574;7.770;2023-06-01T00:51:21;12.00;;;2.08;;
45039;SDS011;30778;53.574;7.770;2023-06-01T00:53:47;4.57;;;1.55;;
45039;SDS011;30778;53.574;7.770;2023-06-01T00:56:13;5.68;;;1.83;;
45039;SDS011;30778;53.574;7.770;2023-06-01T00:58:39;4.47;;;1.33;;
45039;SDS011;30778;53.574;7.770;2023-06-01T01:01:05;9.43;;;1.35;;
45039;SDS011;30778;53.574;7.770;2023-06-01T01:03:30;7.28;;;2.65;;
45039;SDS011;30778;53.574;7.770;2023-06-01T01:06:15;8.55;;;2.33;;
45039;SDS011;30778;53.574;7.770;2023-06-01T01:08:58;7.95;;;1.80;;
45039;SDS011;30778;53.574;7.770;2023-06-01T01:11:32;7.65;;;1.67;;
45039;SDS011;30778;53.574;7.770;2023-06-01T01:14:08;9.27;;;2.38;;
45039;SDS011;30778;53.574;7.770;2023-06-01T01:16:56;6.13;;;1.90;;
45039;SDS011;30778;53.574;7.770;2023-06-01T01:30:25;7.25;;;2.38;;
45039;SDS011;30778;53.574;7.770;2023-06-01T01:32:52;7.82;;;1.80;;
45039;SDS011;30778;53.574;7.770;2023-06-01T01:35:20;6.97;;;1.75;;
45039;SDS011;30778;53.574;7.770;2023-06-01T01:37:51;11.65;;;2.53;;
45039;SDS011;30778;53.574;7.770;2023-06-01T01:40:18;8.13;;;1.80;;
45039;SDS011;30778;53.574;7.770;2023-06-01T01:42:45;10.35;;;2.55;;
45039;SDS011;30778;53.574;7.770;2023-06-01T01:45:11;6.80;;;1.80;;
45039;SDS011;30778;53.574;7.770;2023-06-01T01:47:46;8.35;;;2.42;;
45039;SDS011;30778;53.574;7.770;2023-06-01T01:50:20;6.05;;;1.65;;
45039;SDS011;30778;53.574;7.770;2023-06-01T01:52:49;9.60;;;2.83;;
45039;SDS011;30778;53.574;7.770;2023-06-01T01:55:17;8.45;;;2.33;;
45039;SDS011;30778;53.574;7.770;2023-06-01T01:57:43;7.05;;;1.73;;
45039;SDS011;30778;53.574;7.770;2023-06-01T02:00:10;16.85;;;2.30;;
45039;SDS011;30778;53.574;7.770;2023-06-01T02:02:41;6.72;;;2.10;;
45039;SDS011;30778;53.574;7.770;2023-06-01T02:05:10;6.40;;;2.03;;
45039;SDS011;30778;53.574;7.770;2023-06-01T02:07:36;10.63;;;1.83;;
45039;SDS011;30778;53.574;7.770;2023-06-01T02:10:03;6.60;;;1.63;;
45039;SDS011;30778;53.574;7.770;2023-06-01T02:12:30;7.03;;;2.33;;
45039;SDS011;30778;53.574;7.770;2023-06-01T02:14:56;6.45;;;2.28;;
45039;SDS011;30778;53.574;7.770;2023-06-01T02:17:21;11.45;;;2.30;;
45039;SDS011;30778;53.574;7.770;2023-06-01T02:19:47;6.10;;;2.35;;
45039;SDS011;30778;53.574;7.770;2023-06-01T02:22:13;8.48;;;1.95;;
45039;SDS011;30778;53.574;7.770;2023-06-01T02:24:39;10.05;;;2.10;;
45039;SDS011;30778;53.574;7.770;2023-06-01T02:27:05;11.05;;;2.35;;
45039;SDS011;30778;53.574;7.770;2023-06-01T02:29:32;7.82;;;2.15;;
45039;SDS011;30778;53.574;7.770;2023-06-01T02:31:58;8.13;;;2.22;;
45039;SDS011;30778;53.574;7.770;2023-06-01T02:34:23;5.82;;;1.70;;
45039;SDS011;30778;53.574;7.770;2023-06-01T02:36:49;6.75;;;1.92;;
45039;SDS011;30778;53.574;7.770;2023-06-01T02:39:16;8.35;;;2.50;;
45039;SDS011;30778;53.574;7.770;2023-06-01T02:41:42;5.05;;;2.03;;
45039;SDS011;30778;53.574;7.770;2023-06-01T02:44:08;7.05;;;2.40;;
45039;SDS011;30778;53.574;7.770;2023-06-01T02:46:33;4.28;;;1.75;;
45039;SDS011;30778;53.574;7.770;2023-06-01T02:48:59;10.15;;;1.85;;
45039;SDS011;30778;53.574;7.770;2023-06-01T02:51:25;14.18;;;2.60;;
45039;SDS011;30778;53.574;7.770;2023-06-01T02:54:01;9.82;;;2.30;;
45039;SDS011;30778;53.574;7.770;2023-06-01T02:56:28;12.18;;;1.88;;
45039;SDS011;30778;53.574;7.770;2023-06-01T02:59:14;9.52;;;2.47;;
45039;SDS011;30778;53.574;7.770;2023-06-01T03:04:11;7.55;;;2.92;;
45039;SDS011;30778;53.574;7.770;2023-06-01T03:06:38;12.95;;;2.90;;
45039;SDS011;30778;53.574;7.770;2023-06-01T03:09:05;7.47;;;2.50;;
45039;SDS011;30778;53.574;7.770;2023-06-01T03:11:49;6.03;;;1.52;;
45039;SDS011;30778;53.574;7.770;2023-06-01T03:14:15;9.57;;;2.47;;
45039;SDS011;30778;53.574;7.770;2023-06-01T03:16:41;4.85;;;1.20;;
45039;SDS011;30778;53.574;7.770;2023-06-01T03:19:15;10.63;;;3.33;;
45039;SDS011;30778;53.574;7.770;2023-06-01T03:21:41;7.10;;;2.28;;
45039;SDS011;30778;53.574;7.770;2023-06-01T03:24:07;10.63;;;2.22;;
45039;SDS011;30778;53.574;7.770;2023-06-01T03:26:33;6.63;;;2.08;;
45039;SDS011;30778;53.574;7.770;2023-06-01T03:28:59;12.73;;;2.80;;
45039;SDS011;30778;53.574;7.770;2023-06-01T03:31:25;14.73;;;3.60;;
45039;SDS011;30778;53.574;7.770;2023-06-01T03:33:54;4.88;;;2.45;;
45039;SDS011;30778;53.574;7.770;2023-06-01T03:36:20;6.95;;;2.25;;
45039;SDS011;30778;53.574;7.770;2023-06-01T03:38:46;10.65;;;2.42;;
45039;SDS011;30778;53.574;7.770;2023-06-01T03:41:11;7.13;;;2.33;;
45039;SDS011;30778;53.574;7.770;2023-06-01T03:43:37;6.82;;;1.58;;
45039;SDS011;30778;53.574;7.770;2023-06-01T03:46:02;8.85;;;1.83;;
45039;SDS011;30778;53.574;7.770;2023-06-01T03:48:28;3.83;;;1.25;;
45039;SDS011;30778;53.574;7.770;2023-06-01T03:50:54;4.35;;;1.30;;
45039;SDS011;30778;53.574;7.770;2023-06-01T03:53:20;6.38;;;1.42;;
45039;SDS011;30778;53.574;7.770;2023-06-01T03:55:47;6.18;;;1.17;;
45039;SDS011;30778;53.574;7.770;2023-06-01T03:58:27;3.05;;;1.00;;
45039;SDS011;30778;53.574;7.770;2023-06-01T04:00:53;5.03;;;0.73;;
45039;SDS011;30778;53.574;7.770;2023-06-01T04:03:20;2.85;;;1.05;;
45039;SDS011;30778;53.574;7.770;2023-06-01T04:05:47;5.80;;;0.98;;
45039;SDS011;30778;53.574;7.770;2023-06-01T04:08:15;4.07;;;0.57;;
45039;SDS011;30778;53.574;7.770;2023-06-01T04:10:42;2.53;;;0.82;;
45039;SDS011;30778;53.574;7.770;2023-06-01T04:13:08;5.20;;;0.80;;
45039;SDS011;30778;53.574;7.770;2023-06-01T04:15:34;9.32;;;1.33;;
45039;SDS011;30778;53.574;7.770;2023-06-01T04:18:01;4.65;;;1.00;;
45039;SDS011;30778;53.574;7.770;2023-06-01T04:20:33;7.60;;;0.95;;
45039;SDS011;30778;53.574;7.770;2023-06-01T04:23:00;7.10;;;0.68;;
45039;SDS011;30778;53.574;7.770;2023-06-01T04:25:27;5.78;;;0.90;;
45039;SDS011;30778;53.574;7.770;2023-06-01T04:27:53;2.08;;;1.00;;
45039;SDS011;30778;53.574;7.770;2023-06-01T04:30:21;4.22;;;1.05;;
45039;SDS011;30778;53.574;7.770;2023-06-01T04:32:47;9.32;;;1.27;;
45039;SDS011;30778;53.574;7.770;2023-06-01T04:35:14;5.22;;;1.00;;
45039;SDS011;30778;53.574;7.770;2023-06-01T04:37:40;4.18;;;1.00;;
45039;SDS011;30778;53.574;7.770;2023-06-01T04:40:08;4.40;;;1.17;;
45039;SDS011;30778;53.574;7.770;2023-06-01T04:42:37;5.93;;;1.52;;
45039;SDS011;30778;53.574;7.770;2023-06-01T04:45:08;3.65;;;0.82;;
45039;SDS011;30778;53.574;7.770;2023-06-01T04:47:36;4.18;;;1.05;;
45039;SDS011;30778;53.574;7.770;2023-06-01T04:50:09;5.32;;;1.60;;
45039;SDS011;30778;53.574;7.770;2023-06-01T04:52:39;5.13;;;1.45;;
45039;SDS011;30778;53.574;7.770;2023-06-01T04:55:06;5.82;;;0.93;;
45039;SDS011;30778;53.574;7.770;2023-06-01T04:57:36;4.78;;;1.77;;
45039;SDS011;30778;53.574;7.770;2023-06-01T05:00:03;4.20;;;1.40;;
45039;SDS011;30778;53.574;7.770;2023-06-01T05:02:33;10.02;;;1.90;;
45039;SDS011;30778;53.574;7.770;2023-06-01T05:04:59;9.52;;;2.22;;
45039;SDS011;30778;53.574;7.770;2023-06-01T05:07:24;6.28;;;1.63;;
45039;SDS011;30778;53.574;7.770;2023-06-01T05:09:50;7.07;;;1.50;;
45039;SDS011;30778;53.574;7.770;2023-06-01T05:12:16;4.47;;;1.20;;
45039;SDS011;30778;53.574;7.770;2023-06-01T05:14:41;6.85;;;1.40;;
45039;SDS011;30778;53.574;7.770;2023-06-01T05:17:08;5.55;;;1.50;;
45039;SDS011;30778;53.574;7.770;2023-06-01T05:19:33;9.80;;;1.50;;
45039;SDS011;30778;53.574;7.770;2023-06-01T05:21:59;4.57;;;2.63;;
45039;SDS011;30778;53.574;7.770;2023-06-01T05:24:24;7.55;;;2.50;;
45039;SDS011;30778;53.574;7.770;2023-06-01T05:26:50;3.83;;;1.55;;
45039;SDS011;30778;53.574;7.770;2023-06-01T05:29:15;12.73;;;1.55;;
45039;SDS011;30778;53.574;7.770;2023-06-01T05:31:41;4.78;;;1.00;;
45039;SDS011;30778;53.574;7.770;2023-06-01T05:34:06;9.75;;;1.42;;
45039;SDS011;30778;53.574;7.770;2023-06-01T05:36:32;4.55;;;1.00;;
45039;SDS011;30778;53.574;7.770;2023-06-01T05:38:58;2.15;;;1.00;;
45039;SDS011;30778;53.574;7.770;2023-06-01T05:41:24;5.22;;;1.25;;
45039;SDS011;30778;53.574;7.770;2023-06-01T05:43:52;4.00;;;1.13;;
45039;SDS011;30778;53.574;7.770;2023-06-01T05:46:18;6.28;;;1.13;;
45039;SDS011;30778;53.574;7.770;2023-06-01T05:48:44;4.70;;;0.82;;
45039;SDS011;30778;53.574;7.770;2023-06-01T05:51:12;6.05;;;0.80;;
45039;SDS011;30778;53.574;7.770;2023-06-01T05:53:37;7.20;;;1.00;;
45039;SDS011;30778;53.574;7.770;2023-06-01T05:56:03;6.18;;;0.90;;
45039;SDS011;30778;53.574;7.770;2023-06-01T05:58:29;9.00;;;2.38;;
45039;SDS011;30778;53.574;7.770;2023-06-01T06:00:56;9.23;;;1.00;;
45039;SDS011;30778;53.574;7.770;2023-06-01T06:03:22;11.65;;;1.45;;
45039;SDS011;30778;53.574;7.770;2023-06-01T06:05:48;8.13;;;0.50;;
45039;SDS011;30778;53.574;7.770;2023-06-01T06:08:14;11.07;;;1.08;;
45039;SDS011;30778;53.574;7.770;2023-06-01T06:10:40;5.97;;;0.98;;
45039;SDS011;30778;53.574;7.770;2023-06-01T06:13:06;5.82;;;1.13;;
45039;SDS011;30778;53.574;7.770;2023-06-01T06:15:32;5.47;;;1.35;;
45039;SDS011;30778;53.574;7.770;2023-06-01T06:17:58;6.93;;;1.02;;
45039;SDS011;30778;53.574;7.770;2023-06-01T06:20:24;3.78;;;1.25;;
45039;SDS011;30778;53.574;7.770;2023-06-01T06:22:50;19.30;;;1.75;;
45039;SDS011;30778;53.574;7.770;2023-06-01T06:25:16;2.92;;;0.95;;
45039;SDS011;30778;53.574;7.770;2023-06-01T06:27:42;10.60;;;1.48;;
45039;SDS011;30778;53.574;7.770;2023-06-01T06:30:08;6.95;;;0.90;;
45039;SDS011;30778;53.574;7.770;2023-06-01T06:32:38;4.85;;;0.68;;
45039;SDS011;30778;53.574;7.770;2023-06-01T06:35:04;5.57;;;0.73;;
45039;SDS011;30778;53.574;7.770;2023-06-01T06:37:30;5.43;;;0.70;;
45039;SDS011;30778;53.574;7.770;2023-06-01T06:39:56;5.47;;;0.63;;
45039;SDS011;30778;53.574;7.770;2023-06-01T06:42:23;5.50;;;1.23;;
45039;SDS011;30778;53.574;7.770;2023-06-01T06:44:48;7.38;;;0.57;;
45039;SDS011;30778;53.574;7.770;2023-06-01T06:47:14;2.47;;;0.40;;
45039;SDS011;30778;53.574;7.770;2023-06-01T06:49:43;5.78;;;0.57;;
45039;SDS011;30778;53.574;7.770;2023-06-01T06:52:09;8.55;;;0.68;;
45039;SDS011;30778;53.574;7.770;2023-06-01T06:54:36;4.72;;;0.68;;
45039;SDS011;30778;53.574;7.770;2023-06-01T06:57:03;5.65;;;0.70;;
45039;SDS011;30778;53.574;7.770;2023-06-01T06:59:29;4.72;;;0.60;;
45039;SDS011;30778;53.574;7.770;2023-06-01T07:01:55;5.57;;;0.57;;
45039;SDS011;30778;53.574;7.770;2023-06-01T07:04:22;6.82;;;1.25;;
45039;SDS011;30778;53.574;7.770;2023-06-01T07:06:47;3.58;;;0.60;;
45039;SDS011;30778;53.574;7.770;2023-06-01T07:09:13;10.68;;;0.60;;
45039;SDS011;30778;53.574;7.770;2023-06-01T07:11:40;9.00;;;1.58;;
45039;SDS011;30778;53.574;7.770;2023-06-01T07:14:08;8.93;;;0.68;;
45039;SDS011;30778;53.574;7.770;2023-06-01T07:16:33;3.42;;;0.70;;
45039;SDS011;30778;53.574;7.770;2023-06-01T07:18:59;3.97;;;0.68;;
45039;SDS011;30778;53.574;7.770;2023-06-01T07:21:25;7.32;;;0.82;;
45039;SDS011;30778;53.574;7.770;2023-06-01T07:23:51;4.57;;;1.23;;
45039;SDS011;30778;53.574;7.770;2023-06-01T07:26:16;7.88;;;0.40;;
45039;SDS011;30778;53.574;7.770;2023-06-01T07:28:42;4.32;;;0.60;;
45039;SDS011;30778;53.574;7.770;2023-06-01T07:31:07;6.85;;;1.45;;
45039;SDS011;30778;53.574;7.770;2023-06-01T07:33:33;3.85;;;1.02;;
45039;SDS011;30778;53.574;7.770;2023-06-01T07:36:01;4.78;;;0.93;;
45039;SDS011;30778;53.574;7.770;2023-06-01T07:38:28;8.52;;;0.73;;
45039;SDS011;30778;53.574;7.770;2023-06-01T07:40:54;7.20;;;0.70;;
45039;SDS011;30778;53.574;7.770;2023-06-01T07:43:19;5.90;;;0.90;;
45039;SDS011;30778;53.574;7.770;2023-06-01T07:45:45;7.53;;;0.47;;
45039;SDS011;30778;53.574;7.770;2023-06-01T07:48:11;4.72;;;0.82;;
45039;SDS011;30778;53.574;7.770;2023-06-01T07:50:36;5.95;;;0.88;;
45039;SDS011;30778;53.574;7.770;2023-06-01T07:53:02;2.92;;;0.45;;
45039;SDS011;30778;53.574;7.770;2023-06-01T07:55:28;6.28;;;1.02;;
45039;SDS011;30778;53.574;7.770;2023-06-01T07:57:54;3.65;;;1.00;;
45039;SDS011;30778;53.574;7.770;2023-06-01T08:00:19;6.43;;;0.70;;
45039;SDS011;30778;53.574;7.770;2023-06-01T08:02:45;5.57;;;0.47;;
45039;SDS011;30778;53.574;7.770;2023-06-01T08:05:11;7.35;;;1.13;;
45039;SDS011;30778;53.574;7.770;2023-06-01T08:07:37;3.25;;;0.90;;
45039;SDS011;30778;53.574;7.770;2023-06-01T08:10:08;11.88;;;1.83;;
45039;SDS011;30778;53.574;7.770;2023-06-01T08:12:34;19.73;;;1.85;;
45039;SDS011;30778;53.574;7.770;2023-06-01T08:15:01;12.85;;;1.67;;
45039;SDS011;30778;53.574;7.770;2023-06-01T08:17:28;6.47;;;1.70;;
45039;SDS011;30778;53.574;7.770;2023-06-01T08:19:55;12.10;;;2.05;;
45039;SDS011;30778;53.574;7.770;2023-06-01T08:22:22;9.20;;;0.80;;
45039;SDS011;30778;53.574;7.770;2023-06-01T08:24:49;5.35;;;1.10;;
45039;SDS011;30778;53.574;7.770;2023-06-01T08:27:22;5.20;;;1.20;;
45039;SDS011;30778;53.574;7.770;2023-06-01T08:29:49;10.82;;;2.67;;
45039;SDS011;30778;53.574;7.770;2023-06-01T08:32:15;6.43;;;1.20;;
45039;SDS011;30778;53.574;7.770;2023-06-01T08:34:45;12.07;;;1.40;;
45039;SDS011;30778;53.574;7.770;2023-06-01T08:37:15;8.32;;;1.13;;
45039;SDS011;30778;53.574;7.770;2023-06-01T08:39:40;6.13;;;0.80;;
45039;SDS011;30778;53.574;7.770;2023-06-01T08:44:38;7.82;;;1.42;;
45039;SDS011;30778;53.574;7.770;2023-06-01T08:47:06;8.50;;;1.23;;
45039;SDS011;30778;53.574;7.770;2023-06-01T08:49:32;6.13;;;0.80;;
45039;SDS011;30778;53.574;7.770;2023-06-01T08:52:00;14.18;;;2.88;;
45039;SDS011;30778;53.574;7.770;2023-06-01T08:54:28;3.97;;;0.77;;
45039;SDS011;30778;53.574;7.770;2023-06-01T08:56:58;6.80;;;1.65;;
45039;SDS011;30778;53.574;7.770;2023-06-01T08:59:25;6.85;;;0.90;;
45039;SDS011;30778;53.574;7.770;2023-06-01T09:01:51;10.15;;;1.52;;
45039;SDS011;30778;53.574;7.770;2023-06-01T09:04:18;3.47;;;0.68;;
45039;SDS011;30778;53.574;7.770;2023-06-01T09:06:44;2.45;;;0.95;;
45039;SDS011;30778;53.574;7.770;2023-06-01T09:09:11;9.27;;;0.98;;
45039;SDS011;30778;53.574;7.770;2023-06-01T09:11:38;6.43;;;1.02;;
45039;SDS011;30778;53.574;7.770;2023-06-01T09:14:25;4.38;;;1.45;;
45039;SDS011;30778;53.574;7.770;2023-06-01T09:16:51;6.88;;;1.75;;
45039;SDS011;30778;53.574;7.770;2023-06-01T09:19:17;9.10;;;1.73;;
45039;SDS011;30778;53.574;7.770;2023-06-01T09:21:56;4.30;;;1.63;;
45039;SDS011;30778;53.574;7.770;2023-06-01T09:24:22;3.63;;;0.88;;
45039;SDS011;30778;53.574;7.770;2023-06-01T09:26:49;6.70;;;1.40;;
45039;SDS011;30778;53.574;7.770;2023-06-01T09:29:15;8.52;;;1.23;;
45039;SDS011;30778;53.574;7.770;2023-06-01T09:31:46;6.72;;;1.25;;
45039;SDS011;30778;53.574;7.770;2023-06-01T09:34:13;10.13;;;1.80;;
45039;SDS011;30778;53.574;7.770;2023-06-01T09:36:44;10.02;;;1.77;;
45039;SDS011;30778;53.574;7.770;2023-06-01T09:39:11;6.45;;;1.88;;
45039;SDS011;30778;53.574;7.770;2023-06-01T09:41:55;5.57;;;0.90;;
45039;SDS011;30778;53.574;7.770;2023-06-01T09:46:57;4.50;;;0.90;;
45039;SDS011;30778;53.574;7.770;2023-06-01T09:49:25;4.53;;;0.85;;
45039;SDS011;30778;53.574;7.770;2023-06-01T09:54:31;11.90;;;1.30;;
45039;SDS011;30778;53.574;7.770;2023-06-01T09:57:00;13.77;;;2.00;;
45039;SDS011;30778;53.574;7.770;2023-06-01T09:59:27;12.93;;;1.48;;
45039;SDS011;30778;53.574;7.770;2023-06-01T10:01:54;7.28;;;1.98;;
45039;SDS011;30778;53.574;7.770;2023-06-01T10:04:24;7.45;;;1.30;;
45039;SDS011;30778;53.574;7.770;2023-06-01T10:06:52;12.95;;;1.98;;
45039;SDS011;30778;53.574;7.770;2023-06-01T10:09:21;8.00;;;1.52;;
45039;SDS011;30778;53.574;7.770;2023-06-01T10:11:50;7.60;;;1.23;;
45039;SDS011;30778;53.574;7.770;2023-06-01T10:14:23;3.08;;;1.08;;
45039;SDS011;30778;53.574;7.770;2023-06-01T10:16:51;11.15;;;1.08;;
45039;SDS011;30778;53.574;7.770;2023-06-01T10:19:18;4.60;;;1.48;;
45039;SDS011;30778;53.574;7.770;2023-06-01T10:21:45;10.18;;;1.33;;
45039;SDS011;30778;53.574;7.770;2023-06-01T10:24:12;6.47;;;1.90;;
45039;SDS011;30778;53.574;7.770;2023-06-01T10:26:44;4.93;;;1.27;;
45039;SDS011;30778;53.574;7.770;2023-06-01T10:29:17;12.40;;;2.20;;
45039;SDS011;30778;53.574;7.770;2023-06-01T10:31:43;5.80;;;1.08;;
45039;SDS011;30778;53.574;7.770;2023-06-01T10:34:10;6.55;;;1.40;;
45039;SDS011;30778;53.574;7.770;2023-06-01T10:39:26;7.03;;;1.63;;
45039;SDS011;30778;53.574;7.770;2023-06-01T10:41:56;4.85;;;0.90;;
45039;SDS011;30778;53.574;7.770;2023-06-01T10:47:04;8.38;;;1.88;;
45039;SDS011;30778;53.574;7.770;2023-06-01T10:52:56;3.60;;;1.08;;
45039;SDS011;30778;53.574;7.770;2023-06-01T10:57:32;8.60;;;0.95;;
45039;SDS011;30778;53.574;7.770;2023-06-01T11:02:43;9.15;;;1.17;;
45039;SDS011;30778;53.574;7.770;2023-06-01T11:10:55;7.10;;;0.75;;
45039;SDS011;30778;53.574;7.770;2023-06-01T11:13:37;4.80;;;1.10;;
45039;SDS011;30778;53.574;7.770;2023-06-01T11:23:46;13.82;;;1.40;;
45039;SDS011;30778;53.574;7.770;2023-06-01T11:26:13;6.20;;;1.58;;
45039;SDS011;30778;53.574;7.770;2023-06-01T11:28:44;5.93;;;1.52;;
45039;SDS011;30778;53.574;7.770;2023-06-01T11:31:14;13.32;;;1.52;;
45039;SDS011;30778;53.574;7.770;2023-06-01T11:33:41;6.45;;;1.45;;
45039;SDS011;30778;53.574;7.770;2023-06-01T11:36:18;11.52;;;1.10;;
45039;SDS011;30778;53.574;7.770;2023-06-01T11:38:45;10.43;;;0.63;;
45039;SDS011;30778;53.574;7.770;2023-06-01T11:41:11;4.40;;;0.60;;
45039;SDS011;30778;53.574;7.770;2023-06-01T11:43:36;8.18;;;1.02;;
45039;SDS011;30778;53.574;7.770;2023-06-01T11:46:03;7.03;;;0.60;;
45039;SDS011;30778;53.574;7.770;2023-06-01T11:48:30;5.65;;;0.90;;
45039;SDS011;30778;53.574;7.770;2023-06-01T11:50:56;6.50;;;1.05;;
45039;SDS011;30778;53.574;7.770;2023-06-01T11:53:24;4.38;;;0.50;;
45039;SDS011;30778;53.574;7.770;2023-06-01T11:55:50;4.13;;;0.60;;
45039;SDS011;30778;53.574;7.770;2023-06-01T11:58:22;4.80;;;0.77;;
45039;SDS011;30778;53.574;7.770;2023-06-01T12:00:52;4.28;;;0.47;;
45039;SDS011;30778;53.574;7.770;2023-06-01T12:03:18;4.85;;;0.57;;
45039;SDS011;30778;53.574;7.770;2023-06-01T12:05:44;3.35;;;0.70;;
45039;SDS011;30778;53.574;7.770;2023-06-01T12:08:22;6.45;;;0.98;;
45039;SDS011;30778;53.574;7.770;2023-06-01T12:10:50;3.05;;;0.30;;
45039;SDS011;30778;53.574;7.770;2023-06-01T12:13:18;2.85;;;0.85;;
45039;SDS011;30778;53.574;7.770;2023-06-01T12:15:45;7.78;;;0.43;;
45039;SDS011;30778;53.574;7.770;2023-06-01T12:18:11;8.75;;;1.33;;
45039;SDS011;30778;53.574;7.770;2023-06-01T12:20:38;5.05;;;0.55;;
45039;SDS011;30778;53.574;7.770;2023-06-01T12:25:34;4.32;;;0.85;;
45039;SDS011;30778;53.574;7.770;2023-06-01T12:28:03;0.70;;;0.30;;
45039;SDS011;30778;53.574;7.770;2023-06-01T12:30:31;10.63;;;1.10;;
45039;SDS011;30778;53.574;7.770;2023-06-01T12:32:56;7.72;;;0.38;;
45039;SDS011;30778;53.574;7.770;2023-06-01T12:35:22;4.88;;;0.35;;
45039;SDS011;30778;53.574;7.770;2023-06-01T12:38:04;5.13;;;1.05;;
45039;SDS011;30778;53.574;7.770;2023-06-01T12:40:30;12.23;;;0.90;;
45039;SDS011;30778;53.574;7.770;2023-06-01T12:42:56;3.67;;;0.40;;
45039;SDS011;30778;53.574;7.770;2023-06-01T12:45:21;5.07;;;0.50;;
45039;SDS011;30778;53.574;7.770;2023-06-01T12:47:47;4.63;;;0.28;;
45039;SDS011;30778;53.574;7.770;2023-06-01T12:50:12;3.13;;;0.20;;
45039;SDS011;30778;53.574;7.770;2023-06-01T12:52:39;4.28;;;0.35;;
45039;SDS011;30778;53.574;7.770;2023-06-01T12:55:06;3.42;;;0.30;;
45039;SDS011;30778;53.574;7.770;2023-06-01T12:57:33;7.75;;;0.77;;
45039;SDS011;30778;53.574;7.770;2023-06-01T13:00:00;7.60;;;1.02;;
45039;SDS011;30778;53.574;7.770;2023-06-01T13:02:30;3.60;;;0.80;;
45039;SDS011;30778;53.574;7.770;2023-06-01T13:04:55;3.80;;;1.00;;
45039;SDS011;30778;53.574;7.770;2023-06-01T13:07:22;6.50;;;1.83;;
45039;SDS011;30778;53.574;7.770;2023-06-01T13:09:48;16.77;;;4.38;;
45039;SDS011;30778;53.574;7.770;2023-06-01T13:12:14;3.83;;;0.88;;
45039;SDS011;30778;53.574;7.770;2023-06-01T13:14:40;9.95;;;1.85;;
45039;SDS011;30778;53.574;7.770;2023-06-01T13:17:05;9.43;;;1.60;;
45039;SDS011;30778;53.574;7.770;2023-06-01T13:19:31;9.68;;;1.35;;
45039;SDS011;30778;53.574;7.770;2023-06-01T13:21:56;9.18;;;1.20;;
45039;SDS011;30778;53.574;7.770;2023-06-01T13:24:22;6.90;;;0.50;;
45039;SDS011;30778;53.574;7.770;2023-06-01T13:26:48;9.70;;;1.58;;
45039;SDS011;30778;53.574;7.770;2023-06-01T13:29:13;7.63;;;1.08;;
45039;SDS011;30778;53.574;7.770;2023-06-01T13:31:39;9.25;;;0.30;;
45039;SDS011;30778;53.574;7.770;2023-06-01T13:34:04;4.38;;;0.93;;
45039;SDS011;30778;53.574;7.770;2023-06-01T13:36:30;2.78;;;0.50;;
45039;SDS011;30778;53.574;7.770;2023-06-01T13:38:56;5.38;;;0.43;;
45039;SDS011;30778;53.574;7.770;2023-06-01T13:41:22;3.88;;;0.80;;
45039;SDS011;30778;53.574;7.770;2023-06-01T13:43:48;1.98;;;0.60;;
45039;SDS011;30778;53.574;7.770;2023-06-01T13:46:13;5.85;;;1.63;;
45039;SDS011;30778;53.574;7.770;2023-06-01T13:48:40;9.38;;;1.25;;
45039;SDS011;30778;53.574;7.770;2023-06-01T13:51:06;10.07;;;1.00;;
45039;SDS011;30778;53.574;7.770;2023-06-01T13:53:31;8.10;;;2.53;;
45039;SDS011;30778;53.574;7.770;2023-06-01T13:55:58;7.22;;;3.00;;
45039;SDS011;30778;53.574;7.770;2023-06-01T13:58:24;5.20;;;1.08;;
45039;SDS011;30778;53.574;7.770;2023-06-01T14:00:50;8.63;;;1.88;;
45039;SDS011;30778;53.574;7.770;2023-06-01T14:03:15;8.32;;;1.42;;
45039;SDS011;30778;53.574;7.770;2023-06-01T14:05:41;3.47;;;0.52;;
45039;SDS011;30778;53.574;7.770;2023-06-01T14:08:06;6.72;;;1.75;;
45039;SDS011;30778;53.574;7.770;2023-06-01T14:10:32;11.10;;;2.65;;
45039;SDS011;30778;53.574;7.770;2023-06-01T14:12:59;9.02;;;1.33;;
45039;SDS011;30778;53.574;7.770;2023-06-01T14:15:25;4.68;;;1.08;;
45039;SDS011;30778;53.574;7.770;2023-06-01T14:17:55;8.23;;;0.93;;
45039;SDS011;30778;53.574;7.770;2023-06-01T14:20:21;5.90;;;1.05;;
45039;SDS011;30778;53.574;7.770;2023-06-01T14:22:47;5.53;;;0.57;;
45039;SDS011;30778;53.574;7.770;2023-06-01T14:25:12;7.53;;;0.90;;
45039;SDS011;30778;53.574;7.770;2023-06-01T14:27:38;9.05;;;0.88;;
45039;SDS011;30778;53.574;7.770;2023-06-01T14:30:05;2.35;;;0.52;;
45039;SDS011;30778;53.574;7.770;2023-06-01T14:32:32;7.55;;;0.47;;
45039;SDS011;30778;53.574;7.770;2023-06-01T14:34:57;6.80;;;0.57;;
45039;SDS011;30778;53.574;7.770;2023-06-01T14:37:23;5.38;;;0.60;;
45039;SDS011;30778;53.574;7.770;2023-06-01T14:39:48;7.75;;;1.25;;
45039;SDS011;30778;53.574;7.770;2023-06-01T14:42:15;4.18;;;0.40;;
45039;SDS011;30778;53.574;7.770;2023-06-01T14:44:41;10.80;;;0.95;;
45039;SDS011;30778;53.574;7.770;2023-06-01T14:47:07;15.77;;;0.70;;
45039;SDS011;30778;53.574;7.770;2023-06-01T14:49:32;10.38;;;0.57;;
45039;SDS011;30778;53.574;7.770;2023-06-01T14:51:58;6.63;;;2.08;;
45039;SDS011;30778;53.574;7.770;2023-06-01T14:54:23;5.38;;;0.88;;
45039;SDS011;30778;53.574;7.770;2023-06-01T14:56:49;9.10;;;0.98;;
45039;SDS011;30778;53.574;7.770;2023-06-01T14:59:14;2.92;;;0.40;;
45039;SDS011;30778;53.574;7.770;2023-06-01T15:01:40;9.45;;;0.80;;
45039;SDS011;30778;53.574;7.770;2023-06-01T15:04:06;6.00;;;0.60;;
45039;SDS011;30778;53.574;7.770;2023-06-01T15:06:32;8.48;;;0.90;;
45039;SDS011;30778;53.574;7.770;2023-06-01T15:08:57;5.70;;;0.90;;
45039;SDS011;30778;53.574;7.770;2023-06-01T15:11:23;9.85;;;0.65;;
45039;SDS011;30778;53.574;7.770;2023-06-01T15:13:48;6.68;;;0.35;;
45039;SDS011;30778;53.574;7.770;2023-06-01T15:16:15;5.28;;;1.20;;
45039;SDS011;30778;53.574;7.770;2023-06-01T15:18:41;7.72;;;0.93;;
45039;SDS011;30778;53.574;7.770;2023-06-01T15:21:06;10.90;;;1.02;;
45039;SDS011;30778;53.574;7.770;2023-06-01T15:23:32;3.15;;;1.02;;
45039;SDS011;30778;53.574;7.770;2023-06-01T15:25:58;5.35;;;0.50;;
45039;SDS011;30778;53.574;7.770;2023-06-01T15:28:23;9.38;;;0.90;;
45039;SDS011;30778;53.574;7.770;2023-06-01T15:30:49;9.45;;;1.02;;
45039;SDS011;30778;53.574;7.770;2023-06-01T15:33:15;8.05;;;1.10;;
45039;SDS011;30778;53.574;7.770;2023-06-01T15:35:41;9.43;;;0.73;;